P. B. Shah — WDB8609 — position and weather

sailwx.info

Track history (hours):
 
Tides and Currents Weather Stations Pressure Air Temp Water Temp Dewpoint Dewpoint Depression Visibility Wind Speed Wind Dir Waves Ship Positions

P. B. Shah

Owner: Ingram Barge Company LLC, Nashville, TN. More information available from US FCC via Universal Licensing System and Coast Guard Vessel Documentation Center.

Last reported at 2018-May-14 16:08 UTC. Time now 2018-May-22 08:14 UTC.
Position N 32°45' W 091°09'.

Length 49 m; draft 3 m.

Type: Towing. MMSI: 366961480.

Date/timePositionNaut miles runAvg speedWind from/ knotsBaromVisibWave heightAir tempDewpointWater temp
2018-May-14 16:08N 32°45' W 091°09'0 1.0
2018-May-14 15:52N 32°45' W 091°09'0 0.1
2018-May-14 15:28N 32°45' W 091°09'5 3.5
2018-May-14 13:58N 32°43' W 091°03'7 4.9
2018-May-14 12:36N 32°39' W 091°09'1 5.9
2018-May-14 12:30N 32°38' W 091°09'3 5.3
2018-May-14 12:00N 32°36' W 091°08'3 5.4
2018-May-14 11:30N 32°34' W 091°06'3 5.3
2018-May-14 11:00N 32°31' W 091°06'3 5.1
2018-May-14 10:30N 32°28' W 091°07'3 5.4
2018-May-14 10:00N 32°27' W 091°04'3 5.5
2018-May-14 09:30N 32°26' W 091°01'2 4.9
2018-May-14 09:00N 32°24' W 090°60'2 4.8
2018-May-14 08:30N 32°21' W 090°60'3 5.3
2018-May-14 08:00N 32°21' W 090°57'3 5.1
2018-May-14 07:30N 32°20' W 090°54'2 5.0
2018-May-14 07:00N 32°18' W 090°56'2 5.0
2018-May-14 06:30N 32°16' W 090°58'2 4.0
2018-May-14 05:58N 32°14' W 090°59'2 4.2
2018-May-14 05:30N 32°12' W 090°59'3 5.0
2018-May-14 05:00N 32°09' W 090°60'2 4.9
2018-May-14 04:30N 32°07' W 091°01'2 5.0
2018-May-14 04:00N 32°08' W 091°04'2 4.1
2018-May-14 03:30N 32°07' W 091°06'4 4.7
2018-May-14 02:40N 32°04' W 091°03'1 5.0
2018-May-14 02:26N 32°02' W 091°04'2 5.7
2018-May-14 02:00N 32°00' W 091°05'2 5.0
2018-May-14 01:30N 31°59' W 091°08'  
2018-May-11 05:21N 29°57' W 090°23'  
Track history (hours):
 
Tides and Currents Weather Stations Pressure Air Temp Water Temp Dewpoint Dewpoint Depression Visibility Wind Speed Wind Dir Waves Ship Positions

P. B. Shah

Owner: Ingram Barge Company LLC, Nashville, TN. More information available from US FCC via Universal Licensing System and Coast Guard Vessel Documentation Center.

Last reported at 2018-May-14 16:08 UTC. Time now 2018-May-22 08:14 UTC.
Position N 32°45' W 091°09'.

Length 49 m; draft 3 m.

Type: Towing. MMSI: 366961480.

Date/timePositionNaut miles runAvg speedWind from/ knotsBaromVisibWave heightAir tempDewpointWater temp
2018-May-14 16:08N 32°45' W 091°09'0 1.0
2018-May-14 15:52N 32°45' W 091°09'0 0.1
2018-May-14 15:28N 32°45' W 091°09'5 3.5
2018-May-14 13:58N 32°43' W 091°03'7 4.9
2018-May-14 12:36N 32°39' W 091°09'1 5.9
2018-May-14 12:30N 32°38' W 091°09'3 5.3
2018-May-14 12:00N 32°36' W 091°08'3 5.4
2018-May-14 11:30N 32°34' W 091°06'3 5.3
2018-May-14 11:00N 32°31' W 091°06'3 5.1
2018-May-14 10:30N 32°28' W 091°07'3 5.4
2018-May-14 10:00N 32°27' W 091°04'3 5.5
2018-May-14 09:30N 32°26' W 091°01'2 4.9
2018-May-14 09:00N 32°24' W 090°60'2 4.8
2018-May-14 08:30N 32°21' W 090°60'3 5.3
2018-May-14 08:00N 32°21' W 090°57'3 5.1
2018-May-14 07:30N 32°20' W 090°54'2 5.0
2018-May-14 07:00N 32°18' W 090°56'2 5.0
2018-May-14 06:30N 32°16' W 090°58'2 4.0
2018-May-14 05:58N 32°14' W 090°59'2 4.2
2018-May-14 05:30N 32°12' W 090°59'3 5.0
2018-May-14 05:00N 32°09' W 090°60'2 4.9
2018-May-14 04:30N 32°07' W 091°01'2 5.0
2018-May-14 04:00N 32°08' W 091°04'2 4.1
2018-May-14 03:30N 32°07' W 091°06'4 4.7
2018-May-14 02:40N 32°04' W 091°03'1 5.0
2018-May-14 02:26N 32°02' W 091°04'2 5.7
2018-May-14 02:00N 32°00' W 091°05'2 5.0
2018-May-14 01:30N 31°59' W 091°08'  
2018-May-11 05:21N 29°57' W 090°23'  

Dump ship's entire track history